createdAt,value
2022-10-26T00:01:15.221Z,14.23
2022-10-26T00:03:44.798Z,14.22
2022-10-26T00:06:15.675Z,14.20
2022-10-26T00:08:43.010Z,14.20
2022-10-26T00:11:11.481Z,14.22
2022-10-26T00:13:40.251Z,14.21
2022-10-26T00:16:14.647Z,14.24
2022-10-26T00:18:42.319Z,14.24
2022-10-26T00:21:11.220Z,14.24
2022-10-26T00:23:38.308Z,14.25
2022-10-26T00:26:05.923Z,14.26
2022-10-26T00:28:33.025Z,14.27
2022-10-26T00:31:06.799Z,14.30
2022-10-26T00:33:34.320Z,14.32
2022-10-26T00:36:01.356Z,14.32
2022-10-26T00:38:28.382Z,14.34
2022-10-26T00:40:55.363Z,14.36
2022-10-26T00:43:22.200Z,14.39
2022-10-26T00:45:55.437Z,14.41
2022-10-26T00:48:30.007Z,14.42
2022-10-26T00:51:02.080Z,14.42
2022-10-26T00:53:30.099Z,14.42
2022-10-26T00:55:58.116Z,14.41
2022-10-26T00:58:26.092Z,14.40
2022-10-26T01:00:53.646Z,14.38
2022-10-26T01:03:25.035Z,14.36
2022-10-26T01:05:57.494Z,14.35
2022-10-26T01:08:28.071Z,14.35
2022-10-26T01:10:58.063Z,14.31
2022-10-26T01:13:28.510Z,14.31
2022-10-26T01:16:38.377Z,14.29
2022-10-26T01:19:32.347Z,14.27
2022-10-26T01:22:28.197Z,14.28
2022-10-26T01:25:19.123Z,14.28
2022-10-26T01:27:49.087Z,14.27
2022-10-26T01:30:31.281Z,14.27
2022-10-26T01:33:18.754Z,14.26
2022-10-26T01:36:04.027Z,14.26
2022-10-26T01:38:44.278Z,14.26
2022-10-26T01:41:29.530Z,14.25
2022-10-26T01:44:03.070Z,14.25
2022-10-26T01:46:39.806Z,14.25
2022-10-26T01:49:11.706Z,14.24
2022-10-26T01:51:43.023Z,14.21
2022-10-26T01:54:10.291Z,14.22
2022-10-26T01:56:41.034Z,14.21
2022-10-26T01:59:40.946Z,14.20
2022-10-26T02:02:33.511Z,14.18
2022-10-26T02:05:15.689Z,14.17
2022-10-26T02:08:04.926Z,14.17
2022-10-26T02:11:12.487Z,14.17
2022-10-26T02:13:56.027Z,14.18
2022-10-26T02:16:58.271Z,14.20
2022-10-26T02:19:39.563Z,14.20
2022-10-26T02:22:10.803Z,14.21
2022-10-26T02:24:39.874Z,14.21
2022-10-26T02:27:11.438Z,14.21
2022-10-26T02:29:40.355Z,14.25
2022-10-26T02:32:08.951Z,14.24
2022-10-26T02:34:38.080Z,14.25
2022-10-26T02:37:06.806Z,14.26
2022-10-26T02:39:36.244Z,14.27
2022-10-26T02:42:07.128Z,14.29
2022-10-26T02:44:50.249Z,14.29
2022-10-26T02:47:19.352Z,14.31
2022-10-26T02:49:46.765Z,14.31
2022-10-26T02:52:46.926Z,14.31
2022-10-26T02:55:34.725Z,14.30
2022-10-26T02:58:09.938Z,14.30
2022-10-26T03:00:36.923Z,14.31
2022-10-26T03:03:05.187Z,14.28
2022-10-26T03:05:33.107Z,14.28
2022-10-26T03:08:00.614Z,14.25
2022-10-26T03:10:27.758Z,14.25
2022-10-26T03:12:54.733Z,14.23
2022-10-26T03:15:21.984Z,14.22
2022-10-26T03:17:49.261Z,14.21
2022-10-26T03:20:16.481Z,14.21
2022-10-26T03:22:43.529Z,14.21
2022-10-26T03:25:10.575Z,14.21
2022-10-26T03:27:37.965Z,14.22
2022-10-26T03:30:05.727Z,14.21
2022-10-26T03:32:32.757Z,14.22
2022-10-26T03:34:59.815Z,14.20
2022-10-26T03:37:27.303Z,14.21
2022-10-26T03:39:54.260Z,14.21
2022-10-26T03:42:21.222Z,14.20
2022-10-26T03:44:48.338Z,14.19
2022-10-26T03:47:15.286Z,14.17
2022-10-26T03:49:42.296Z,14.14
2022-10-26T03:52:09.318Z,14.14
2022-10-26T03:54:36.295Z,14.11
2022-10-26T03:57:03.214Z,14.10
2022-10-26T03:59:30.180Z,14.08
2022-10-26T04:01:58.001Z,14.07
2022-10-26T04:04:25.474Z,14.04
2022-10-26T04:06:52.564Z,14.03
2022-10-26T04:09:19.523Z,14.03
2022-10-26T04:11:46.444Z,14.01
2022-10-26T04:14:13.376Z,14.02
2022-10-26T04:16:40.389Z,14.02
2022-10-26T04:19:07.405Z,14.00
2022-10-26T04:21:35.347Z,14.00
2022-10-26T04:24:02.834Z,14.00
2022-10-26T04:26:29.759Z,13.99
2022-10-26T04:28:56.750Z,13.99
2022-10-26T04:31:24.595Z,13.99
2022-10-26T04:33:51.513Z,13.98
2022-10-26T04:36:18.417Z,13.96
2022-10-26T04:38:45.453Z,13.98
2022-10-26T04:41:12.387Z,13.98
2022-10-26T04:43:39.333Z,14.00
2022-10-26T04:46:06.319Z,13.99
2022-10-26T04:48:33.432Z,13.99
2022-10-26T04:51:01.175Z,13.99
2022-10-26T04:53:28.622Z,13.99
2022-10-26T04:56:03.142Z,13.97
2022-10-26T04:58:30.533Z,13.96
2022-10-26T05:00:57.525Z,13.96
2022-10-26T05:03:24.501Z,13.96
2022-10-26T05:05:51.530Z,13.95
2022-10-26T05:08:18.479Z,13.95
2022-10-26T05:10:50.282Z,13.93
2022-10-26T05:13:17.732Z,13.94
2022-10-26T05:15:44.792Z,13.93
2022-10-26T05:18:11.966Z,13.94
2022-10-26T05:20:38.981Z,13.93
2022-10-26T05:23:10.370Z,13.93
2022-10-26T05:25:38.783Z,13.94
2022-10-26T05:28:09.704Z,13.93
2022-10-26T05:30:37.790Z,13.93
2022-10-26T05:33:05.783Z,13.95
2022-10-26T05:35:33.330Z,13.95
2022-10-26T05:38:06.256Z,13.98
2022-10-26T05:40:33.367Z,13.97
2022-10-26T05:43:02.048Z,13.98
2022-10-26T05:45:29.500Z,14.02
2022-10-26T05:47:58.720Z,14.04
2022-10-26T05:50:29.350Z,14.08
2022-10-26T05:52:56.262Z,14.12
2022-10-26T05:55:23.963Z,14.18
2022-10-26T05:57:51.791Z,14.21
2022-10-26T06:00:23.028Z,14.25
2022-10-26T06:06:05.317Z,14.29
2022-10-26T06:08:34.811Z,14.31
2022-10-26T06:11:03.024Z,14.31
2022-10-26T06:13:30.439Z,14.31
2022-10-26T06:16:14.407Z,14.30
2022-10-26T06:19:02.867Z,14.29
2022-10-26T06:22:01.436Z,14.27
2022-10-26T06:25:22.438Z,14.27
2022-10-26T06:28:14.874Z,14.33
2022-10-26T06:30:41.950Z,14.37
2022-10-26T06:33:24.931Z,14.38
2022-10-26T06:36:16.188Z,14.41
2022-10-26T06:38:44.633Z,14.43
2022-10-26T06:41:16.285Z,14.48
2022-10-26T06:43:43.700Z,14.49
2022-10-26T06:46:17.137Z,14.50
2022-10-26T06:49:24.759Z,14.50
2022-10-26T06:51:58.435Z,14.49
2022-10-26T06:54:53.307Z,14.49
2022-10-26T06:57:34.880Z,14.47
2022-10-26T07:00:21.464Z,14.45
2022-10-26T07:02:50.093Z,14.42
2022-10-26T07:05:17.815Z,14.42
2022-10-26T07:07:47.950Z,14.40
2022-10-26T07:10:15.817Z,14.39
2022-10-26T07:12:42.811Z,14.39
2022-10-26T07:15:10.330Z,14.44
2022-10-26T07:17:49.102Z,14.44
2022-10-26T07:20:19.695Z,14.49
2022-10-26T07:22:56.453Z,14.50
2022-10-26T07:25:25.541Z,14.49
2022-10-26T07:27:52.565Z,14.50
2022-10-26T07:30:19.584Z,14.50
2022-10-26T07:32:46.708Z,14.51
2022-10-26T07:35:14.583Z,14.52
2022-10-26T07:37:41.517Z,14.51
2022-10-26T07:40:08.843Z,14.52
2022-10-26T07:42:37.053Z,14.53
2022-10-26T07:45:04.815Z,14.56
2022-10-26T07:47:31.733Z,14.58
2022-10-26T07:49:58.681Z,14.59
2022-10-26T07:52:25.628Z,14.62
2022-10-26T07:54:52.606Z,14.63
2022-10-26T07:57:19.637Z,14.65
2022-10-26T07:59:46.721Z,14.65
2022-10-26T08:02:13.866Z,14.64
2022-10-26T08:04:43.874Z,14.62
2022-10-26T08:07:10.842Z,14.62
2022-10-26T08:09:37.865Z,14.63
2022-10-26T08:12:05.207Z,14.64
2022-10-26T08:14:32.127Z,14.64
2022-10-26T08:16:59.050Z,14.64
2022-10-26T08:19:26.152Z,14.63
2022-10-26T08:21:53.093Z,14.65
2022-10-26T08:24:20.017Z,14.67
2022-10-26T08:26:46.991Z,14.67
2022-10-26T08:29:13.999Z,14.70
2022-10-26T08:31:40.923Z,14.73
2022-10-26T08:34:08.059Z,14.76
2022-10-26T08:36:35.054Z,14.80
2022-10-26T08:39:01.983Z,14.82
2022-10-26T08:41:52.715Z,14.88
2022-10-26T08:44:35.160Z,14.91
2022-10-26T08:47:20.735Z,14.94
2022-10-26T08:50:05.065Z,15.01
2022-10-26T08:52:51.258Z,15.06
2022-10-26T08:55:28.925Z,15.11
2022-10-26T08:57:56.739Z,15.16
2022-10-26T09:00:25.979Z,15.22
2022-10-26T09:02:54.059Z,15.28
2022-10-26T09:05:41.026Z,15.34
2022-10-26T09:08:31.325Z,15.44
2022-10-26T09:11:08.645Z,15.59
2022-10-26T09:13:45.323Z,15.70
2022-10-26T09:16:36.432Z,15.82
2022-10-26T09:19:24.041Z,15.94
2022-10-26T09:22:13.662Z,16.06
2022-10-26T09:24:56.222Z,16.17
2022-10-26T09:27:32.586Z,16.27
2022-10-26T09:30:12.292Z,16.37
2022-10-26T09:32:45.117Z,16.46
2022-10-26T09:35:42.200Z,16.56
2022-10-26T09:38:43.380Z,16.68
2022-10-26T09:41:36.934Z,16.80
2022-10-26T09:44:44.899Z,16.94
2022-10-26T09:47:38.165Z,17.08
2022-10-26T09:50:28.135Z,17.21
2022-10-26T09:52:55.199Z,17.31
2022-10-26T09:55:22.968Z,17.43
2022-10-26T09:57:56.321Z,17.53
2022-10-26T10:00:27.229Z,17.60
2022-10-26T10:02:56.950Z,17.69
2022-10-26T10:05:50.264Z,17.77
2022-10-26T10:08:23.276Z,17.84
2022-10-26T10:11:12.520Z,17.92
2022-10-26T10:13:45.566Z,18.00
2022-10-26T10:16:24.101Z,18.07
2022-10-26T10:18:59.933Z,18.12
2022-10-26T10:21:45.506Z,18.22
2022-10-26T10:24:33.834Z,18.29
2022-10-26T10:27:16.944Z,18.35
2022-10-26T10:30:22.520Z,18.44
2022-10-26T10:33:13.461Z,18.56
2022-10-26T10:35:50.675Z,18.65
2022-10-26T10:38:20.913Z,18.75
2022-10-26T10:41:03.735Z,18.88
2022-10-26T10:43:30.994Z,18.99
2022-10-26T10:45:59.870Z,19.12
2022-10-26T10:48:29.335Z,19.21
2022-10-26T10:51:12.246Z,19.30
2022-10-26T10:53:56.696Z,19.41
2022-10-26T10:56:38.523Z,19.45
2022-10-26T10:59:30.740Z,19.49
2022-10-26T11:02:44.723Z,19.53
2022-10-26T11:05:40.196Z,19.57
2022-10-26T11:08:29.055Z,19.55
2022-10-26T11:11:18.747Z,19.61
2022-10-26T11:13:51.537Z,19.62
2022-10-26T11:16:37.411Z,19.59
2022-10-26T11:19:27.207Z,19.61
2022-10-26T11:21:55.605Z,19.58
2022-10-26T11:24:45.442Z,19.61
2022-10-26T11:27:20.053Z,19.70
2022-10-26T11:30:15.224Z,19.67
2022-10-26T11:32:50.328Z,19.67
2022-10-26T11:35:36.778Z,19.66
2022-10-26T11:38:56.400Z,19.64
2022-10-26T11:42:00.903Z,19.67
2022-10-26T11:44:43.294Z,19.70
2022-10-26T11:47:19.490Z,19.64
2022-10-26T11:50:04.785Z,19.59
2022-10-26T11:53:00.832Z,19.60
2022-10-26T11:55:29.372Z,19.59
2022-10-26T11:57:57.944Z,19.57
2022-10-26T12:00:26.959Z,19.54
2022-10-26T12:03:10.459Z,19.56
2022-10-26T12:05:40.301Z,19.53
2022-10-26T12:08:19.543Z,19.55
2022-10-26T12:13:58.960Z,19.52
2022-10-26T12:17:06.549Z,19.57
2022-10-26T12:20:04.360Z,19.53
2022-10-26T12:22:37.449Z,19.57
2022-10-26T12:25:15.116Z,19.58
2022-10-26T12:27:42.336Z,19.60
2022-10-26T12:30:23.833Z,19.60
2022-10-26T12:33:05.173Z,19.66
2022-10-26T12:35:44.224Z,19.64
2022-10-26T12:38:47.614Z,19.72
2022-10-26T12:41:24.683Z,19.82
2022-10-26T12:43:56.135Z,19.92
2022-10-26T12:46:26.022Z,20.08
2022-10-26T12:48:59.868Z,20.20
2022-10-26T12:51:26.718Z,20.25
2022-10-26T12:54:05.611Z,20.37
2022-10-26T12:56:38.045Z,20.47
2022-10-26T12:59:27.215Z,20.53
2022-10-26T13:02:43.757Z,20.63
2022-10-26T13:05:19.983Z,20.71
2022-10-26T13:07:47.159Z,20.77
2022-10-26T13:10:14.044Z,20.83
2022-10-26T13:12:56.947Z,20.83
2022-10-26T13:15:29.259Z,20.85
2022-10-26T13:18:10.093Z,20.91
2022-10-26T13:20:52.033Z,20.89
2022-10-26T13:23:29.252Z,20.89
2022-10-26T13:26:12.772Z,20.92
2022-10-26T13:28:39.765Z,20.94
2022-10-26T13:31:24.277Z,21.00
2022-10-26T13:33:56.122Z,21.00
2022-10-26T13:36:45.238Z,21.05
2022-10-26T13:39:40.338Z,21.11
2022-10-26T13:42:13.672Z,21.20
2022-10-26T13:44:45.669Z,21.28
2022-10-26T13:47:24.100Z,21.34
2022-10-26T13:49:55.475Z,21.41
2022-10-26T13:52:38.252Z,21.49
2022-10-26T13:55:28.629Z,21.58
2022-10-26T13:58:35.964Z,21.61
2022-10-26T14:01:18.258Z,21.65
2022-10-26T14:03:45.381Z,21.70
2022-10-26T14:06:38.975Z,21.79
2022-10-26T14:09:17.604Z,21.77
2022-10-26T14:11:50.081Z,21.84
2022-10-26T14:14:34.109Z,21.88
2022-10-26T14:17:01.561Z,21.89
2022-10-26T14:19:39.771Z,21.87
2022-10-26T14:22:07.590Z,21.88
2022-10-26T14:24:47.229Z,21.88
2022-10-26T14:27:21.418Z,21.97
2022-10-26T14:30:16.861Z,21.97
2022-10-26T14:32:37.048Z,21.98
2022-10-26T14:35:04.380Z,22.06
2022-10-26T14:37:40.057Z,22.04
2022-10-26T14:40:13.586Z,22.09
2022-10-26T14:42:44.419Z,22.07
2022-10-26T14:45:49.292Z,22.09
2022-10-26T14:48:32.201Z,22.06
2022-10-26T14:50:59.613Z,22.11
2022-10-26T14:53:37.705Z,22.10
2022-10-26T14:56:24.499Z,22.12
2022-10-26T14:58:52.902Z,22.15
2022-10-26T15:01:23.125Z,22.11
2022-10-26T15:04:01.426Z,22.17
2022-10-26T15:06:28.303Z,22.21
2022-10-26T15:09:00.361Z,22.16
2022-10-26T15:11:29.431Z,22.17
2022-10-26T15:13:58.698Z,22.13
2022-10-26T15:16:29.466Z,22.15
2022-10-26T15:19:06.739Z,22.11
2022-10-26T15:21:42.852Z,22.10
2022-10-26T15:24:20.927Z,21.99
2022-10-26T15:26:48.233Z,21.88
2022-10-26T15:29:38.958Z,21.93
2022-10-26T15:32:31.889Z,21.87
2022-10-26T15:35:17.707Z,21.79
2022-10-26T15:37:48.974Z,21.75
2022-10-26T15:40:16.606Z,21.70
2022-10-26T15:42:45.531Z,21.57
2022-10-26T15:45:24.065Z,21.47
2022-10-26T15:47:53.163Z,21.35
2022-10-26T15:50:23.866Z,21.31
2022-10-26T15:53:00.494Z,21.18
2022-10-26T15:55:30.130Z,21.05
2022-10-26T15:57:57.182Z,21.02
2022-10-26T16:00:24.113Z,20.94
2022-10-26T16:02:51.115Z,20.83
2022-10-26T16:05:18.217Z,20.76
2022-10-26T16:07:47.817Z,20.65
2022-10-26T16:10:23.347Z,20.56
2022-10-26T16:12:51.475Z,20.41
2022-10-26T16:15:22.772Z,20.31
2022-10-26T16:17:50.920Z,20.17
2022-10-26T16:20:24.288Z,20.04
2022-10-26T16:22:53.401Z,19.92
2022-10-26T16:25:25.667Z,19.82
2022-10-26T16:27:54.992Z,19.70
2022-10-26T16:30:24.870Z,19.61
2022-10-26T16:32:55.169Z,19.54
2022-10-26T16:35:22.154Z,19.49
2022-10-26T16:37:49.300Z,19.42
2022-10-26T16:40:16.293Z,19.35
2022-10-26T16:42:44.565Z,19.29
2022-10-26T16:45:16.021Z,19.23
2022-10-26T16:47:43.039Z,19.17
2022-10-26T16:50:12.625Z,19.13
2022-10-26T16:52:40.077Z,19.12
2022-10-26T16:55:09.055Z,19.08
2022-10-26T16:57:36.986Z,19.04
2022-10-26T17:00:06.925Z,19.02
2022-10-26T17:02:34.011Z,18.98
2022-10-26T17:05:04.233Z,18.96
2022-10-26T17:07:36.815Z,18.93
2022-10-26T17:10:04.499Z,18.90
2022-10-26T17:12:31.874Z,18.89
2022-10-26T17:15:00.481Z,18.87
2022-10-26T17:17:27.524Z,18.84
2022-10-26T17:19:54.659Z,18.81
2022-10-26T17:22:21.785Z,18.77
2022-10-26T17:24:48.751Z,18.75
2022-10-26T17:27:17.327Z,18.73
2022-10-26T17:29:44.441Z,18.69
2022-10-26T17:32:11.391Z,18.67
2022-10-26T17:34:38.383Z,18.63
2022-10-26T17:37:05.381Z,18.61
2022-10-26T17:39:32.387Z,18.59
2022-10-26T17:41:59.376Z,18.57
2022-10-26T17:44:26.424Z,18.55
2022-10-26T17:46:53.383Z,18.52
2022-10-26T17:49:24.795Z,18.49
2022-10-26T17:51:53.794Z,18.48
2022-10-26T17:54:20.753Z,18.46
2022-10-26T17:56:47.785Z,18.43
2022-10-26T17:59:14.771Z,18.43
2022-10-26T18:01:43.112Z,18.41
2022-10-26T18:04:10.279Z,18.39
2022-10-26T18:06:37.293Z,18.37
2022-10-26T18:09:04.522Z,18.35
2022-10-26T18:14:03.940Z,18.34
2022-10-26T18:16:31.863Z,18.33
2022-10-26T18:19:04.210Z,18.32
2022-10-26T18:21:34.847Z,18.32
2022-10-26T18:24:02.221Z,18.32
2022-10-26T18:26:32.873Z,18.33
2022-10-26T18:29:01.036Z,18.29
2022-10-26T18:31:30.731Z,18.30
2022-10-26T18:34:03.051Z,18.29
2022-10-26T18:36:30.433Z,18.29
2022-10-26T18:38:57.946Z,18.29
2022-10-26T18:41:26.053Z,18.28
2022-10-26T18:43:58.633Z,18.24
2022-10-26T18:46:29.256Z,18.23
2022-10-26T18:48:56.887Z,18.18
2022-10-26T18:51:31.907Z,18.18
2022-10-26T18:54:00.099Z,18.16
2022-10-26T18:56:27.302Z,18.15
2022-10-26T18:58:58.697Z,18.14
2022-10-26T19:01:34.689Z,18.11
2022-10-26T19:04:05.173Z,18.09
2022-10-26T19:06:38.859Z,18.06
2022-10-26T19:09:07.456Z,18.05
2022-10-26T19:11:35.234Z,18.04
2022-10-26T19:14:02.581Z,18.00
2022-10-26T19:16:45.367Z,17.99
2022-10-26T19:19:14.378Z,18.00
2022-10-26T19:21:41.358Z,17.99
2022-10-26T19:24:17.389Z,17.96
2022-10-26T19:26:46.895Z,17.94
2022-10-26T19:29:16.736Z,17.92
2022-10-26T19:31:45.994Z,17.90
2022-10-26T19:34:15.219Z,17.86
2022-10-26T19:36:44.841Z,17.85
2022-10-26T19:39:17.046Z,17.81
2022-10-26T19:41:45.811Z,17.79
2022-10-26T19:44:14.279Z,17.77
2022-10-26T19:46:43.125Z,17.73
2022-10-26T19:49:10.232Z,17.71
2022-10-26T19:51:37.242Z,17.70
2022-10-26T19:54:06.666Z,17.69
2022-10-26T19:56:36.027Z,17.65
2022-10-26T19:59:03.374Z,17.61
2022-10-26T20:01:31.547Z,17.58
2022-10-26T20:03:58.732Z,17.53
2022-10-26T20:06:28.671Z,17.46
2022-10-26T20:08:55.639Z,17.40
2022-10-26T20:11:22.683Z,17.37
2022-10-26T20:13:49.692Z,17.34
2022-10-26T20:16:17.787Z,17.32
2022-10-26T20:18:47.925Z,17.27
2022-10-26T20:21:17.639Z,17.24
2022-10-26T20:23:45.003Z,17.22
2022-10-26T20:26:19.616Z,17.20
2022-10-26T20:28:50.809Z,17.16
2022-10-26T20:31:17.794Z,17.11
2022-10-26T20:33:44.840Z,17.10
2022-10-26T20:36:11.952Z,17.08
2022-10-26T20:38:40.046Z,17.07
2022-10-26T20:41:12.022Z,17.06
2022-10-26T20:43:41.463Z,17.05
2022-10-26T20:46:23.781Z,17.04
2022-10-26T20:48:53.677Z,17.05
2022-10-26T20:51:38.532Z,17.03
2022-10-26T20:54:17.725Z,17.02
2022-10-26T20:56:45.678Z,17.01
2022-10-26T20:59:36.090Z,17.02
2022-10-26T21:02:04.223Z,17.00
2022-10-26T21:04:31.420Z,17.02
2022-10-26T21:06:58.374Z,17.02
2022-10-26T21:09:26.124Z,17.03
2022-10-26T21:11:58.272Z,17.04
2022-10-26T21:14:25.251Z,17.03
2022-10-26T21:16:52.166Z,17.00
2022-10-26T21:19:19.552Z,17.00
2022-10-26T21:21:46.657Z,16.97
2022-10-26T21:24:13.817Z,16.95
2022-10-26T21:26:40.792Z,16.92
2022-10-26T21:29:07.802Z,16.89
2022-10-26T21:31:34.867Z,16.85
2022-10-26T21:34:02.907Z,16.83
2022-10-26T21:36:29.941Z,16.81
2022-10-26T21:38:56.904Z,16.80
2022-10-26T21:44:03.200Z,16.80
2022-10-26T21:46:40.246Z,16.78
2022-10-26T21:49:07.294Z,16.77
2022-10-26T21:51:35.126Z,16.76
2022-10-26T21:54:03.628Z,16.75
2022-10-26T21:56:30.566Z,16.74
2022-10-26T21:59:00.330Z,16.72
2022-10-26T22:01:27.761Z,16.70
2022-10-26T22:03:54.995Z,16.70
2022-10-26T22:06:22.243Z,16.68
2022-10-26T22:08:49.366Z,16.68
2022-10-26T22:11:19.658Z,16.67
2022-10-26T22:13:48.643Z,16.67
2022-10-26T22:16:20.830Z,16.68
2022-10-26T22:18:49.166Z,16.66
2022-10-26T22:21:18.380Z,16.61
2022-10-26T22:23:45.863Z,16.58
2022-10-26T22:26:25.140Z,16.54
2022-10-26T22:28:55.399Z,16.51
2022-10-26T22:31:32.503Z,16.47
2022-10-26T22:34:07.831Z,16.46
2022-10-26T22:36:35.726Z,16.45
2022-10-26T22:39:03.452Z,16.44
2022-10-26T22:41:30.545Z,16.42
2022-10-26T22:43:57.552Z,16.41
2022-10-26T22:46:27.762Z,16.40
2022-10-26T22:49:00.412Z,16.39
2022-10-26T22:51:33.675Z,16.39
2022-10-26T22:54:03.490Z,16.37
2022-10-26T22:56:32.387Z,16.34
2022-10-26T22:59:00.006Z,16.32
2022-10-26T23:01:33.933Z,16.30
2022-10-26T23:04:00.934Z,16.27
2022-10-26T23:06:30.525Z,16.27
2022-10-26T23:08:58.097Z,16.24
2022-10-26T23:11:28.102Z,16.24
2022-10-26T23:13:58.023Z,16.23
2022-10-26T23:16:25.916Z,16.25
2022-10-26T23:18:55.536Z,16.24
2022-10-26T23:23:51.959Z,16.26
2022-10-26T23:26:23.553Z,16.25
2022-10-26T23:28:50.899Z,16.25
2022-10-26T23:31:25.653Z,16.26
2022-10-26T23:33:54.909Z,16.27
2022-10-26T23:36:22.739Z,16.27
2022-10-26T23:38:49.697Z,16.26
2022-10-26T23:41:16.709Z,16.27
2022-10-26T23:43:43.670Z,16.28
2022-10-26T23:46:10.637Z,16.28
2022-10-26T23:48:37.648Z,16.27
2022-10-26T23:51:04.830Z,16.28
2022-10-26T23:53:31.820Z,16.26
2022-10-26T23:55:58.871Z,16.25
2022-10-26T23:58:25.849Z,16.22
